• Join FlightAware (Why Join?)
  • Login
  • US Flag 
11:22PM EST


 

Airport Tracker/Info


-or-


 

Live Flight TrackerFlight Track Log ✈ N18AB ✈ 03-Oct-2013 ✈ KAOO - KMTN

Flight Track Log - Related Links

Times and Time Zones

All times are in EDT time to prevent confusion due to time zone crossing. See the N18AB flight status page for this flight to view local times or setup timezone preferences in your user account.

Time Position Orientation Groundspeed Altitude Reporting Facility
EDT Latitude Longitude Course Direction KTS MPH feet Rate Location/Type
04:18PM 40.2189 -78.2247 112° Southeast 145 167 5,000  Level Cleveland Center
04:19PM 40.2122 -78.2033 112° Southeast 138 159 4,900 600 Descending Cleveland Center
04:19PM 40.1994 -78.1783 124° Southeast 181 208 5,500 720 Climbing Cleveland Center
04:20PM 40.1872 -78.1475 117° Southeast 169 194 5,700 660 Climbing Cleveland Center
04:21PM 40.1589 -78.0828 120° Southeast 173 199 6,700 840 Climbing Cleveland Center
04:22PM 40.1314 -78.0356 127° Southeast 168 193 7,500 720 Climbing Cleveland Center
04:23PM 40.1019 -77.9883 129° Southeast 169 194 8,300 720 Climbing Cleveland Center
04:24PM 40.0769 -77.9361 122° Southeast 170 196 9,000 300 Climbing Cleveland Center
04:25PM 40.0458 -77.8753 124° Southeast 183 211 9,000  Level Cleveland Center
04:26PM 40.0194 -77.8178 121° Southeast 184 212 9,100  Climbing Cleveland Center
04:27PM 39.9950 -77.7589 118° Southeast 184 212 9,100  Level Cleveland Center
04:28PM 39.9642 -77.7050 127° Southeast 185 213 9,100  Level Cleveland Center
04:29PM 39.9356 -77.6489 124° Southeast 186 214 9,100  Level Cleveland Center
04:30PM 39.9053 -77.5781 119° Southeast 186 214 9,100  Level Cleveland Center
04:31PM 39.8811 -77.5175 117° Southeast 188 216 9,100  Level Cleveland Center
04:32PM 39.8533 -77.4600 122° Southeast 190 219 9,100 -360 Level Cleveland Center
04:33PM 39.8167 -77.4000 128° Southeast 204 235 8,400 -1,020 Descending Potomac TRACON
04:34PM 39.7833 -77.3333 123° Southeast 226 260 7,200 -780 Descending Potomac TRACON
04:35PM 39.7500 -77.2833 131° Southeast 201 231 7,000 -120 Descending Potomac TRACON
04:36PM 39.7167 -77.2167 123° Southeast 187 215 7,000  Level Potomac TRACON
04:37PM 39.7000 -77.1667 113° Southeast 184 212 7,000  Level Potomac TRACON
04:38PM 39.6667 -77.1167 131° Southeast 181 208 7,000 -660 Level Potomac TRACON
04:39PM 39.6500 -77.0500 108° East 211 243 5,700 -1,260 Descending Potomac TRACON
04:40PM 39.6167 -76.9833 123° Southeast 213 245 4,400 -780 Descending Potomac TRACON
04:41PM 39.5833 -76.9167 123° Southeast 196 226 4,100 -240 Descending Potomac TRACON
04:42PM 39.5500 -76.8500 123° Southeast 181 208 4,000 -60 Descending Potomac TRACON
04:43PM 39.5333 -76.8000 113° Southeast 176 203 4,000 -300 Level Potomac TRACON
04:44PM 39.5000 -76.7500 131° Southeast 186 214 3,500 -540 Descending Potomac TRACON
04:45PM 39.4833 -76.7000 113° Southeast 189 217 3,000 -360 Descending Potomac TRACON
04:46PM 39.4500 -76.6500 131° Southeast 178 205 2,900  Descending Potomac TRACON
04:47PM 39.4333 -76.5833 108° East 177 204 3,000  Climbing Potomac TRACON
04:48PM 39.4333 -76.5333 90° East 175 201 3,000  Level Potomac TRACON
04:49PM 39.4000 -76.5000 142° Southeast 172 198 3,000  Level Potomac TRACON
04:50PM 39.3500 -76.4833 166° South 173 199 3,000  Level Potomac TRACON
04:51PM 39.3167 -76.4667 159° South 169 194 3,000 -60 Level Potomac TRACON
04:52PM 39.2667 -76.4333 153° Southeast 172 198 2,900 -60 Descending Potomac TRACON
04:53PM 39.2333 -76.3833 131° Southeast 181 208 2,900 -300 Level Potomac TRACON
04:54PM 39.2500 -76.3500 57° Northeast 173 199 2,300 -1,140 Descending Potomac TRACON
04:55PM 39.3000 -76.3833 333° Northwest 155 178 700 -1,500 Descending Potomac TRACON